createdAt,value
2019-05-12T00:00:22.059Z,94.67
2019-05-12T00:01:22.050Z,94.77
2019-05-12T00:02:22.022Z,94.46
2019-05-12T00:03:22.012Z,94.56
2019-05-12T00:04:22.004Z,94.77
2019-05-12T00:05:21.990Z,95.07
2019-05-12T00:06:22.009Z,94.87
2019-05-12T00:07:21.993Z,94.77
2019-05-12T00:08:21.960Z,94.67
2019-05-12T00:09:21.957Z,94.77
2019-05-12T00:10:21.937Z,94.97
2019-05-12T00:11:21.925Z,94.87
2019-05-12T00:12:21.935Z,95.07
2019-05-12T00:13:21.907Z,95.18
2019-05-12T00:14:21.918Z,95.07
2019-05-12T00:15:21.901Z,95.07
2019-05-12T00:16:21.894Z,95.34
2019-05-12T00:17:21.881Z,95.59
2019-05-12T00:18:21.849Z,95.76
2019-05-12T00:19:21.837Z,95.70
2019-05-12T00:20:21.835Z,95.76
2019-05-12T00:21:21.842Z,96.58
2019-05-12T00:22:21.822Z,96.31
2019-05-12T00:23:27.519Z,96.27
2019-05-12T00:24:22.787Z,96.31
2019-05-12T00:25:21.770Z,96.27
2019-05-12T00:26:21.761Z,96.27
2019-05-12T00:27:21.767Z,96.17
2019-05-12T00:28:21.739Z,96.21
2019-05-12T00:29:21.725Z,96.17
2019-05-12T00:30:21.717Z,96.37
2019-05-12T00:31:21.708Z,96.69
2019-05-12T00:32:21.778Z,96.48
2019-05-12T00:33:21.730Z,96.27
2019-05-12T00:34:21.673Z,96.17
2019-05-12T00:35:21.663Z,96.37
2019-05-12T00:36:21.657Z,95.86
2019-05-12T00:37:21.636Z,96.37
2019-05-12T00:38:21.647Z,96.69
2019-05-12T00:39:21.628Z,96.27
2019-05-12T00:40:21.610Z,96.17
2019-05-12T00:41:21.601Z,96.23
2019-05-12T00:42:21.622Z,96.12
2019-05-12T00:43:21.596Z,96.23
2019-05-12T00:44:21.582Z,96.12
2019-05-12T00:45:21.550Z,96.12
2019-05-12T00:46:21.542Z,96.33
2019-05-12T00:47:21.557Z,96.33
2019-05-12T00:48:21.525Z,96.23
2019-05-12T00:49:21.522Z,96.23
2019-05-12T00:50:21.500Z,96.23
2019-05-12T00:51:21.513Z,96.02
2019-05-12T00:52:21.513Z,95.92
2019-05-12T00:53:34.810Z,96.33
2019-05-12T00:54:22.456Z,96.23
2019-05-12T00:55:21.448Z,95.40
2019-05-12T00:56:21.429Z,95.77
2019-05-12T00:57:21.420Z,95.30
2019-05-12T00:58:21.431Z,95.36
2019-05-12T00:59:21.399Z,95.81
2019-05-12T01:00:21.392Z,95.71
2019-05-12T01:01:21.380Z,95.50
2019-05-12T01:02:21.364Z,95.61
2019-05-12T01:03:21.369Z,95.40
2019-05-12T01:04:21.344Z,95.20
2019-05-12T01:05:21.331Z,95.09
2019-05-12T01:06:21.336Z,94.37
2019-05-12T01:07:21.325Z,94.95
2019-05-12T01:08:21.324Z,94.89
2019-05-12T01:09:21.291Z,93.85
2019-05-12T01:10:21.279Z,94.17
2019-05-12T01:11:21.268Z,94.27
2019-05-12T01:12:21.261Z,94.27
2019-05-12T01:13:21.262Z,94.17
2019-05-12T01:14:21.261Z,93.85
2019-05-12T01:15:21.226Z,94.37
2019-05-12T01:16:21.210Z,94.47
2019-05-12T01:17:21.207Z,94.17
2019-05-12T01:18:21.192Z,94.37
2019-05-12T01:19:21.193Z,94.27
2019-05-12T01:20:21.171Z,93.96
2019-05-12T01:21:21.163Z,93.34
2019-05-12T01:22:21.153Z,92.82
2019-05-12T01:23:23.390Z,92.61
2019-05-12T01:24:21.147Z,93.54
2019-05-12T01:25:21.118Z,93.44
2019-05-12T01:26:21.108Z,93.54
2019-05-12T01:27:21.091Z,93.24
2019-05-12T01:28:21.079Z,93.34
2019-05-12T01:29:21.088Z,93.34
2019-05-12T01:30:21.060Z,93.34
2019-05-12T01:31:21.054Z,93.03
2019-05-12T01:32:21.038Z,93.13
2019-05-12T01:33:21.029Z,92.37
2019-05-12T01:34:21.039Z,92.57
2019-05-12T01:35:21.020Z,92.31
2019-05-12T01:36:20.993Z,93.24
2019-05-12T01:37:20.979Z,93.24
2019-05-12T01:38:20.981Z,92.82
2019-05-12T01:39:20.961Z,92.00
2019-05-12T01:40:20.968Z,91.89
2019-05-12T01:41:20.939Z,92.61
2019-05-12T01:42:20.928Z,93.03
2019-05-12T01:43:21.404Z,92.72
2019-05-12T01:44:20.914Z,92.31
2019-05-12T01:45:20.914Z,92.51
2019-05-12T01:46:20.885Z,92.61
2019-05-12T01:47:20.872Z,92.82
2019-05-12T01:48:20.886Z,92.82
2019-05-12T01:49:20.864Z,92.51
2019-05-12T01:50:20.868Z,93.03
2019-05-12T01:51:20.837Z,92.51
2019-05-12T01:52:20.834Z,92.00
2019-05-12T01:53:20.835Z,91.58
2019-05-12T01:54:20.801Z,91.79
2019-05-12T01:55:20.829Z,91.69
2019-05-12T01:56:20.774Z,92.10
2019-05-12T01:57:20.759Z,91.89
2019-05-12T01:58:20.754Z,91.58
2019-05-12T01:59:20.743Z,92.00
2019-05-12T02:00:20.755Z,92.00
2019-05-12T02:01:20.718Z,91.58
2019-05-12T02:02:20.715Z,90.55
2019-05-12T02:03:20.698Z,91.48
2019-05-12T02:04:20.692Z,91.69
2019-05-12T02:05:20.688Z,91.69
2019-05-12T02:06:20.695Z,91.79
2019-05-12T02:07:20.654Z,91.79
2019-05-12T02:08:20.655Z,92.04
2019-05-12T02:09:20.635Z,92.04
2019-05-12T02:10:20.623Z,91.94
2019-05-12T02:11:20.659Z,91.79
2019-05-12T02:12:20.600Z,92.04
2019-05-12T02:13:20.590Z,92.04
2019-05-12T02:14:20.575Z,91.94
2019-05-12T02:15:20.564Z,91.83
2019-05-12T02:16:20.581Z,91.69
2019-05-12T02:17:20.558Z,91.83
2019-05-12T02:18:20.530Z,91.83
2019-05-12T02:19:20.531Z,91.63
2019-05-12T02:20:20.516Z,92.35
2019-05-12T02:21:20.511Z,92.66
2019-05-12T02:22:20.507Z,92.35
2019-05-12T02:23:20.473Z,92.04
2019-05-12T02:24:26.542Z,91.94
2019-05-12T02:25:21.455Z,91.94
2019-05-12T02:26:20.449Z,91.63
2019-05-12T02:27:20.446Z,91.73
2019-05-12T02:28:20.430Z,91.94
2019-05-12T02:29:20.412Z,91.67
2019-05-12T02:30:20.673Z,92.04
2019-05-12T02:31:20.964Z,92.04
2019-05-12T02:32:20.408Z,91.98
2019-05-12T02:33:20.373Z,91.98
2019-05-12T02:34:20.359Z,91.88
2019-05-12T02:35:20.343Z,91.98
2019-05-12T02:36:20.343Z,91.77
2019-05-12T02:37:20.355Z,91.98
2019-05-12T02:38:20.308Z,91.88
2019-05-12T02:39:20.301Z,92.19
2019-05-12T02:40:20.285Z,92.19
2019-05-12T02:41:20.280Z,91.98
2019-05-12T02:42:20.299Z,92.08
2019-05-12T02:43:20.272Z,91.98
2019-05-12T02:44:20.246Z,92.29
2019-05-12T02:45:20.239Z,92.08
2019-05-12T02:46:20.222Z,92.19
2019-05-12T02:47:20.236Z,91.88
2019-05-12T02:48:20.206Z,92.08
2019-05-12T02:49:20.190Z,92.13
2019-05-12T02:50:20.182Z,91.82
2019-05-12T02:51:20.172Z,91.92
2019-05-12T02:52:20.174Z,92.08
2019-05-12T02:53:20.169Z,92.13
2019-05-12T02:54:20.137Z,92.23
2019-05-12T02:55:20.125Z,92.02
2019-05-12T02:56:20.117Z,92.13
2019-05-12T02:57:20.124Z,91.92
2019-05-12T02:58:20.090Z,91.82
2019-05-12T02:59:20.081Z,91.92
2019-05-12T03:00:20.074Z,92.23
2019-05-12T03:01:20.066Z,92.23
2019-05-12T03:02:20.051Z,92.33
2019-05-12T03:03:20.052Z,92.74
2019-05-12T03:04:20.032Z,92.64
2019-05-12T03:05:20.010Z,92.68
2019-05-12T03:06:20.005Z,92.38
2019-05-12T03:07:20.015Z,92.27
2019-05-12T03:08:20.002Z,92.07
2019-05-12T03:09:19.970Z,91.75
2019-05-12T03:10:19.962Z,92.17
2019-05-12T03:11:19.955Z,91.86
2019-05-12T03:12:19.949Z,92.11
2019-05-12T03:13:19.937Z,92.11
2019-05-12T03:14:19.911Z,92.42
2019-05-12T03:15:19.899Z,92.42
2019-05-12T03:16:19.887Z,92.32
2019-05-12T03:17:19.876Z,92.72
2019-05-12T03:18:19.883Z,93.04
2019-05-12T03:19:19.863Z,93.04
2019-05-12T03:20:19.849Z,92.63
2019-05-12T03:21:19.843Z,92.52
2019-05-12T03:22:19.821Z,92.11
2019-05-12T03:23:19.875Z,92.15
2019-05-12T03:24:19.798Z,91.90
2019-05-12T03:25:24.746Z,92.25
2019-05-12T03:26:20.783Z,92.25
2019-05-12T03:27:19.761Z,91.94
2019-05-12T03:28:19.771Z,91.63
2019-05-12T03:29:19.753Z,92.25
2019-05-12T03:30:20.076Z,92.15
2019-05-12T03:31:25.335Z,92.25
2019-05-12T03:32:20.717Z,92.57
2019-05-12T03:33:20.395Z,92.91
2019-05-12T03:34:20.821Z,92.87
2019-05-12T03:35:19.687Z,92.36
2019-05-12T03:36:19.668Z,92.50
2019-05-12T03:37:19.652Z,92.15
2019-05-12T03:38:19.660Z,92.09
2019-05-12T03:39:19.640Z,91.99
2019-05-12T03:40:19.623Z,92.61
2019-05-12T03:41:19.615Z,91.99
2019-05-12T03:42:19.602Z,92.09
2019-05-12T03:43:19.639Z,92.40
2019-05-12T03:44:19.626Z,92.09
2019-05-12T03:45:19.570Z,91.88
2019-05-12T03:46:19.560Z,92.19
2019-05-12T03:47:19.542Z,92.50
2019-05-12T03:48:19.560Z,92.91
2019-05-12T03:49:19.550Z,92.50
2019-05-12T03:50:19.510Z,92.76
2019-05-12T03:51:19.512Z,92.85
2019-05-12T03:52:19.488Z,92.76
2019-05-12T03:53:19.484Z,92.34
2019-05-12T03:54:19.482Z,92.24
2019-05-12T03:55:31.717Z,92.65
2019-05-12T03:56:20.446Z,93.16
2019-05-12T03:57:19.432Z,93.37
2019-05-12T03:58:19.428Z,92.96
2019-05-12T03:59:19.450Z,92.76
2019-05-12T04:00:19.404Z,92.96
2019-05-12T04:01:19.395Z,93.00
2019-05-12T04:02:19.376Z,92.76
2019-05-12T04:03:19.364Z,92.80
2019-05-12T04:04:19.372Z,92.80
2019-05-12T04:05:19.347Z,92.59
2019-05-12T04:06:19.337Z,92.59
2019-05-12T04:07:19.320Z,92.90
2019-05-12T04:08:19.308Z,92.80
2019-05-12T04:09:19.310Z,93.00
2019-05-12T04:10:19.296Z,92.59
2019-05-12T04:11:19.286Z,92.74
2019-05-12T04:12:19.275Z,92.80
2019-05-12T04:13:19.269Z,93.10
2019-05-12T04:14:19.257Z,93.31
2019-05-12T04:15:19.231Z,92.90
2019-05-12T04:16:19.238Z,93.10
2019-05-12T04:17:19.214Z,93.00
2019-05-12T04:18:19.244Z,92.69
2019-05-12T04:19:19.209Z,92.59
2019-05-12T04:20:19.172Z,92.94
2019-05-12T04:21:19.167Z,93.35
2019-05-12T04:22:19.153Z,92.94
2019-05-12T04:23:19.138Z,93.21
2019-05-12T04:24:19.161Z,93.35
2019-05-12T04:25:19.114Z,93.15
2019-05-12T04:26:19.143Z,93.35
2019-05-12T04:27:19.134Z,93.25
2019-05-12T04:28:19.084Z,93.04
2019-05-12T04:29:19.091Z,93.25
2019-05-12T04:30:19.082Z,93.35
2019-05-12T04:31:19.058Z,93.35
2019-05-12T04:32:19.058Z,92.78
2019-05-12T04:33:19.064Z,93.04
2019-05-12T04:34:19.496Z,93.15
2019-05-12T04:35:19.039Z,93.56
2019-05-12T04:36:18.999Z,93.46
2019-05-12T04:37:18.991Z,93.35
2019-05-12T04:38:18.972Z,93.46
2019-05-12T04:39:18.968Z,93.35
2019-05-12T04:40:18.958Z,93.77
2019-05-12T04:41:20.162Z,93.98
2019-05-12T04:42:18.948Z,93.98
2019-05-12T04:43:18.938Z,93.66
2019-05-12T04:44:18.917Z,94.08
2019-05-12T04:45:18.918Z,94.35
2019-05-12T04:46:18.886Z,94.87
2019-05-12T04:47:18.896Z,94.76
2019-05-12T04:48:21.454Z,94.45
2019-05-12T04:49:18.860Z,94.97
2019-05-12T04:50:18.840Z,94.76
2019-05-12T04:51:18.856Z,94.97
2019-05-12T04:52:18.841Z,95.07
2019-05-12T04:53:18.810Z,94.56
2019-05-12T04:54:18.818Z,94.87
2019-05-12T04:55:18.810Z,94.56
2019-05-12T04:56:20.604Z,94.51
2019-05-12T04:57:21.175Z,94.62
2019-05-12T04:58:18.779Z,94.51
2019-05-12T04:59:18.766Z,95.24
2019-05-12T05:00:18.738Z,95.29
2019-05-12T05:01:18.741Z,95.34
2019-05-12T05:02:18.739Z,95.61
2019-05-12T05:03:18.705Z,95.40
2019-05-12T05:04:18.712Z,95.81
2019-05-12T05:05:18.687Z,95.71
2019-05-12T05:06:18.694Z,96.85
2019-05-12T05:07:18.661Z,95.40
2019-05-12T05:08:19.780Z,95.29
2019-05-12T05:09:18.650Z,94.89
2019-05-12T05:10:18.628Z,95.25
2019-05-12T05:11:18.638Z,94.73
2019-05-12T05:12:18.611Z,95.04
2019-05-12T05:13:18.622Z,94.53
2019-05-12T05:14:18.590Z,94.69
2019-05-12T05:15:18.582Z,92.72
2019-05-12T05:16:18.607Z,92.63
2019-05-12T05:17:18.573Z,92.63
2019-05-12T05:18:18.543Z,93.10
2019-05-12T05:19:18.535Z,92.89
2019-05-12T05:20:18.527Z,93.41
2019-05-12T05:21:18.517Z,92.99
2019-05-12T05:22:18.514Z,91.96
2019-05-12T05:23:18.493Z,92.23
2019-05-12T05:24:18.482Z,92.02
2019-05-12T05:25:18.471Z,92.33
2019-05-12T05:26:24.550Z,91.40
2019-05-12T05:27:19.464Z,90.89
2019-05-12T05:28:18.452Z,90.89
2019-05-12T05:29:18.428Z,90.74
2019-05-12T05:30:18.416Z,90.64
2019-05-12T05:31:18.428Z,89.61
2019-05-12T05:32:18.414Z,89.50
2019-05-12T05:33:19.991Z,89.29
2019-05-12T05:34:18.370Z,89.09
2019-05-12T05:35:18.363Z,88.53
2019-05-12T05:36:19.901Z,89.46
2019-05-12T05:37:18.364Z,89.67
2019-05-12T05:38:20.704Z,88.74
2019-05-12T05:39:18.324Z,89.25
2019-05-12T05:40:19.747Z,88.90
2019-05-12T05:41:19.302Z,88.39
2019-05-12T05:42:22.217Z,89.22
2019-05-12T05:43:19.291Z,88.49
2019-05-12T05:44:18.272Z,87.66
2019-05-12T05:45:23.404Z,86.63
2019-05-12T05:46:19.236Z,86.53
2019-05-12T05:47:19.776Z,87.26
2019-05-12T05:48:19.219Z,87.46
2019-05-12T05:49:18.227Z,88.18
2019-05-12T05:50:23.450Z,87.77
2019-05-12T05:51:19.190Z,86.94
2019-05-12T05:52:18.166Z,87.98
2019-05-12T05:53:19.821Z,87.46
2019-05-12T05:54:22.756Z,86.94
2019-05-12T05:55:20.287Z,87.05
2019-05-12T05:56:18.459Z,88.18
2019-05-12T05:57:20.018Z,88.08
2019-05-12T05:58:19.125Z,88.04
2019-05-12T05:59:24.027Z,87.98
2019-05-12T06:00:23.199Z,85.67
2019-05-12T06:01:19.084Z,85.97
2019-05-12T06:02:25.525Z,85.30
2019-05-12T06:03:23.263Z,86.80
2019-05-12T06:04:19.037Z,87.11
2019-05-12T06:05:19.998Z,86.70
2019-05-12T06:06:19.018Z,86.70
2019-05-12T06:07:18.011Z,87.21
2019-05-12T06:08:20.930Z,87.73
2019-05-12T06:09:17.981Z,86.80
2019-05-12T06:10:17.984Z,86.90
2019-05-12T06:11:23.845Z,86.90
2019-05-12T06:12:18.947Z,87.01
2019-05-12T06:13:21.201Z,86.39
2019-05-12T06:14:18.924Z,86.29
2019-05-12T06:15:17.920Z,85.87
2019-05-12T06:16:20.668Z,84.22
2019-05-12T06:17:17.900Z,84.64
2019-05-12T06:18:17.911Z,84.64
2019-05-12T06:19:17.899Z,85.77
2019-05-12T06:20:17.867Z,85.97
2019-05-12T06:21:17.854Z,84.84
2019-05-12T06:22:18.390Z,83.71
2019-05-12T06:23:17.832Z,82.89
2019-05-12T06:24:20.146Z,84.43
2019-05-12T06:25:17.800Z,84.84
2019-05-12T06:26:21.039Z,85.25
2019-05-12T06:27:20.946Z,84.19
2019-05-12T06:28:17.799Z,85.63
2019-05-12T06:29:20.772Z,85.17
2019-05-12T06:30:17.743Z,86.10
2019-05-12T06:31:18.964Z,85.89
2019-05-12T06:32:18.721Z,85.59
2019-05-12T06:33:22.824Z,84.72
2019-05-12T06:34:20.991Z,83.80
2019-05-12T06:35:17.695Z,83.80
2019-05-12T06:36:21.995Z,81.33
2019-05-12T06:37:18.689Z,80.98
2019-05-12T06:38:17.671Z,81.29
2019-05-12T06:39:20.547Z,80.67
2019-05-12T06:40:17.635Z,80.36
2019-05-12T06:41:20.832Z,80.47
2019-05-12T06:42:18.628Z,80.74
2019-05-12T06:43:17.603Z,81.97
2019-05-12T06:44:19.496Z,82.07
2019-05-12T06:45:17.596Z,81.52
2019-05-12T06:46:20.989Z,80.70
2019-05-12T06:47:18.570Z,81.28
2019-05-12T06:48:19.365Z,80.15
2019-05-12T06:49:18.539Z,78.92
2019-05-12T06:50:17.541Z,79.43
2019-05-12T06:51:22.705Z,76.65
2019-05-12T06:52:18.504Z,77.03
2019-05-12T06:53:20.059Z,76.72
2019-05-12T06:54:18.480Z,77.75
2019-05-12T06:55:17.521Z,76.93
2019-05-12T06:56:19.803Z,76.93
2019-05-12T06:57:24.994Z,75.59
2019-05-12T06:58:26.422Z,76.21
2019-05-12T06:59:18.431Z,78.88
2019-05-12T07:00:17.441Z,77.20
2019-05-12T07:01:19.392Z,76.07
2019-05-12T07:02:17.434Z,76.62
2019-05-12T07:03:19.413Z,76.79
2019-05-12T07:04:21.183Z,76.07
2019-05-12T07:05:18.379Z,76.07
2019-05-12T07:06:19.730Z,76.24
2019-05-12T07:07:17.348Z,76.48
2019-05-12T07:08:26.600Z,76.58
2019-05-12T07:09:25.036Z,76.38
2019-05-12T07:10:35.798Z,78.85
2019-05-12T07:11:18.317Z,74.84
2019-05-12T07:12:17.318Z,75.56
2019-05-12T07:13:23.196Z,75.66
2019-05-12T07:14:22.692Z,75.32
2019-05-12T07:15:18.329Z,75.45
2019-05-12T07:16:22.955Z,76.28
2019-05-12T07:17:18.234Z,76.34
2019-05-12T07:18:17.848Z,76.68
2019-05-12T07:19:22.764Z,76.75
2019-05-12T07:20:18.262Z,76.45
2019-05-12T07:21:20.326Z,76.34
2019-05-12T07:22:22.486Z,77.37
2019-05-12T07:23:19.736Z,76.04
2019-05-12T07:24:18.156Z,75.42
2019-05-12T07:25:17.143Z,74.29
2019-05-12T07:26:19.524Z,75.93
2019-05-12T07:27:17.139Z,74.60
2019-05-12T07:28:17.111Z,73.47
2019-05-12T07:29:17.097Z,76.45
2019-05-12T07:30:17.099Z,75.52
2019-05-12T07:31:17.091Z,76.04
2019-05-12T07:32:21.736Z,76.20
2019-05-12T07:33:18.051Z,76.24
2019-05-12T07:34:17.052Z,76.00
2019-05-12T07:35:17.044Z,76.24
2019-05-12T07:36:17.049Z,75.18
2019-05-12T07:37:17.013Z,73.88
2019-05-12T07:38:21.338Z,74.87
2019-05-12T07:39:17.991Z,74.70
2019-05-12T07:40:18.976Z,73.57
2019-05-12T07:41:17.981Z,73.78
2019-05-12T07:42:16.962Z,73.16
2019-05-12T07:43:20.589Z,73.78
2019-05-12T07:44:16.928Z,74.49
2019-05-12T07:45:22.177Z,72.24
2019-05-12T07:46:17.933Z,73.06
2019-05-12T07:47:19.300Z,74.77
2019-05-12T07:48:17.902Z,75.59
2019-05-12T07:49:22.033Z,74.36
2019-05-12T07:50:20.646Z,75.90
2019-05-12T07:51:17.896Z,74.84
2019-05-12T07:52:16.856Z,77.06
2019-05-12T07:53:16.831Z,75.82
2019-05-12T07:54:16.823Z,77.06
2019-05-12T07:55:16.818Z,75.28
2019-05-12T07:56:19.523Z,72.24
2019-05-12T07:57:17.785Z,75.18
2019-05-12T07:58:18.943Z,77.23
2019-05-12T07:59:16.769Z,75.59
2019-05-12T08:00:21.284Z,73.30
2019-05-12T08:01:17.769Z,72.99
2019-05-12T08:02:16.733Z,73.71
2019-05-12T08:03:21.168Z,74.73
2019-05-12T08:04:16.768Z,73.71
2019-05-12T08:05:19.778Z,73.10
2019-05-12T08:06:16.732Z,70.53
2019-05-12T08:07:19.943Z,71.56
2019-05-12T08:08:17.682Z,70.84
2019-05-12T08:09:16.656Z,70.84
2019-05-12T08:10:20.047Z,70.12
2019-05-12T08:11:16.698Z,69.71
2019-05-12T08:12:20.962Z,70.53
2019-05-12T08:13:18.770Z,71.45
2019-05-12T08:14:25.810Z,70.64
2019-05-12T08:15:17.591Z,70.87
2019-05-12T08:16:19.626Z,69.92
2019-05-12T08:17:19.581Z,67.60
2019-05-12T08:18:16.558Z,70.67
2019-05-12T08:19:23.721Z,71.08
2019-05-12T08:20:17.540Z,71.28
2019-05-12T08:21:16.530Z,70.87
2019-05-12T08:22:18.961Z,73.64
2019-05-12T08:23:17.516Z,73.54
2019-05-12T08:24:16.490Z,73.50
2019-05-12T08:25:18.847Z,72.89
2019-05-12T08:26:18.614Z,71.04
2019-05-12T08:27:16.470Z,70.50
2019-05-12T08:28:19.095Z,70.40
2019-05-12T08:29:21.309Z,70.57
2019-05-12T08:30:17.472Z,70.88
2019-05-12T08:31:16.417Z,70.54
2019-05-12T08:32:20.065Z,69.11
2019-05-12T08:33:16.433Z,68.97
2019-05-12T08:34:16.401Z,70.00
2019-05-12T08:35:25.768Z,68.12
2019-05-12T08:36:17.364Z,68.84
2019-05-12T08:37:16.369Z,69.01
2019-05-12T08:38:16.352Z,68.80
2019-05-12T08:39:21.067Z,69.29
2019-05-12T08:40:17.331Z,67.65
2019-05-12T08:41:16.311Z,66.74
2019-05-12T08:42:16.324Z,65.58
2019-05-12T08:43:16.310Z,67.55
2019-05-12T08:44:17.604Z,68.06
2019-05-12T08:45:25.095Z,66.83
2019-05-12T08:46:17.258Z,67.65
2019-05-12T08:47:16.242Z,62.24
2019-05-12T08:48:21.492Z,62.45
2019-05-12T08:49:17.213Z,66.12
2019-05-12T08:50:16.209Z,65.51
2019-05-12T08:51:19.458Z,63.26
2019-05-12T08:52:16.183Z,64.79
2019-05-12T08:53:20.738Z,65.58
2019-05-12T08:54:17.170Z,64.66
2019-05-12T08:55:16.976Z,62.32
2019-05-12T08:56:19.366Z,61.88
2019-05-12T08:57:17.139Z,61.37
2019-05-12T08:58:30.135Z,62.08
2019-05-12T08:59:18.499Z,62.26
2019-05-12T09:00:16.095Z,62.97
2019-05-12T09:01:20.377Z,62.16
2019-05-12T09:02:17.108Z,60.73
2019-05-12T09:03:20.561Z,63.65
2019-05-12T09:04:18.372Z,64.26
2019-05-12T09:05:16.035Z,64.14
2019-05-12T09:06:19.722Z,62.51
2019-05-12T09:07:16.091Z,60.27
2019-05-12T09:08:16.031Z,58.84
2019-05-12T09:09:15.991Z,60.27
2019-05-12T09:10:15.980Z,60.85
2019-05-12T09:11:15.970Z,59.53
2019-05-12T09:12:15.968Z,62.17
2019-05-12T09:13:15.954Z,59.35
2019-05-12T09:14:15.967Z,59.35
2019-05-12T09:15:15.929Z,59.66
2019-05-12T09:16:15.924Z,59.14
2019-05-12T09:17:15.906Z,58.13
2019-05-12T09:18:18.766Z,59.96
2019-05-12T09:19:23.520Z,61.59
2019-05-12T09:20:16.871Z,62.20
2019-05-12T09:21:15.867Z,59.48
2019-05-12T09:22:20.391Z,61.31
2019-05-12T09:23:15.855Z,58.15
2019-05-12T09:24:21.718Z,59.17
2019-05-12T09:25:16.822Z,60.32
2019-05-12T09:26:18.653Z,59.61
2019-05-12T09:27:16.790Z,60.93
2019-05-12T09:28:15.810Z,61.54
2019-05-12T09:29:15.779Z,62.26
2019-05-12T09:30:15.768Z,59.84
2019-05-12T09:31:19.445Z,60.35
2019-05-12T09:32:16.734Z,61.16
2019-05-12T09:33:15.718Z,62.18
2019-05-12T09:34:16.504Z,65.92
2019-05-12T09:35:15.707Z,66.23
2019-05-12T09:36:19.758Z,64.20
2019-05-12T09:37:16.684Z,64.60
2019-05-12T09:38:21.473Z,61.75
2019-05-12T09:39:16.676Z,62.23
2019-05-12T09:40:20.733Z,61.14
2019-05-12T09:41:16.627Z,60.32
2019-05-12T09:42:19.287Z,59.91
2019-05-12T09:43:16.610Z,61.24
2019-05-12T09:44:20.395Z,60.63
2019-05-12T09:45:16.589Z,60.32
2019-05-12T09:46:15.580Z,59.51
2019-05-12T09:47:23.555Z,59.64
2019-05-12T09:48:16.547Z,59.84
2019-05-12T09:49:15.541Z,61.57
2019-05-12T09:50:20.073Z,61.88
2019-05-12T09:51:17.280Z,66.16
2019-05-12T09:52:22.685Z,64.90
2019-05-12T09:53:16.490Z,65.75
2019-05-12T09:54:15.527Z,63.89
2019-05-12T09:55:15.496Z,63.58
2019-05-12T09:56:15.457Z,63.99
2019-05-12T09:57:15.457Z,63.35
2019-05-12T09:58:23.031Z,64.06
2019-05-12T09:59:22.643Z,60.83
2019-05-12T10:00:16.472Z,63.18
2019-05-12T10:01:15.404Z,59.58
2019-05-12T10:02:18.628Z,60.73
2019-05-12T10:03:16.391Z,61.14
2019-05-12T10:04:19.323Z,60.32
2019-05-12T10:05:15.394Z,61.14
2019-05-12T10:06:17.922Z,61.75
2019-05-12T10:07:16.343Z,61.95
2019-05-12T10:08:15.362Z,61.44
2019-05-12T10:09:19.656Z,63.38
2019-05-12T10:10:15.339Z,61.14
2019-05-12T10:11:19.291Z,62.77
2019-05-12T10:12:16.278Z,61.98
2019-05-12T10:13:15.272Z,61.88
2019-05-12T10:14:15.256Z,61.88
2019-05-12T10:15:18.775Z,62.49
2019-05-12T10:16:16.238Z,62.49
2019-05-12T10:17:15.224Z,63.31
2019-05-12T10:18:15.224Z,61.37
2019-05-12T10:19:15.201Z,61.16
2019-05-12T10:20:15.214Z,62.11
2019-05-12T10:21:17.347Z,63.92
2019-05-12T10:22:15.209Z,61.98
2019-05-12T10:23:19.022Z,61.47
2019-05-12T10:24:16.147Z,58.72
2019-05-12T10:25:15.169Z,60.28
2019-05-12T10:26:15.169Z,61.37
2019-05-12T10:27:15.121Z,61.68
2019-05-12T10:28:16.239Z,61.71
2019-05-12T10:29:20.423Z,61.91
2019-05-12T10:30:17.209Z,61.71
2019-05-12T10:31:18.320Z,60.14
2019-05-12T10:32:15.074Z,61.07
2019-05-12T10:33:15.072Z,59.74
2019-05-12T10:34:15.033Z,61.07
2019-05-12T10:35:20.866Z,64.81
2019-05-12T10:36:16.040Z,62.46
2019-05-12T10:37:19.240Z,58.39
2019-05-12T10:38:16.023Z,59.91
2019-05-12T10:39:14.985Z,61.93
2019-05-12T10:40:14.975Z,61.61
2019-05-12T10:41:14.977Z,62.30
2019-05-12T10:42:14.945Z,64.14
2019-05-12T10:43:14.939Z,62.27
2019-05-12T10:44:14.926Z,61.33
2019-05-12T10:45:17.008Z,58.99
2019-05-12T10:46:18.338Z,60.59
2019-05-12T10:47:15.885Z,60.18
2019-05-12T10:48:14.877Z,58.33
2019-05-12T10:49:14.886Z,57.41
2019-05-12T10:50:14.874Z,58.22
2019-05-12T10:51:14.870Z,57.38
2019-05-12T10:52:14.835Z,56.95
2019-05-12T10:53:15.552Z,54.21
2019-05-12T10:54:15.725Z,57.86
2019-05-12T10:55:14.818Z,57.76
2019-05-12T10:56:14.824Z,54.00
2019-05-12T10:57:14.779Z,55.12
2019-05-12T10:58:14.802Z,55.12
2019-05-12T10:59:29.179Z,55.43
2019-05-12T11:00:19.634Z,54.00
2019-05-12T11:01:15.760Z,52.89
2019-05-12T11:02:14.749Z,55.02
2019-05-12T11:03:15.479Z,54.51
2019-05-12T11:04:14.708Z,54.82
2019-05-12T11:05:21.440Z,54.41
2019-05-12T11:06:15.711Z,56.06
2019-05-12T11:07:14.689Z,56.04
2019-05-12T11:08:14.667Z,56.24
2019-05-12T11:09:14.664Z,54.41
2019-05-12T11:10:19.612Z,52.69
2019-05-12T11:11:15.634Z,56.72
2019-05-12T11:12:19.285Z,54.18
2019-05-12T11:13:18.049Z,52.97
2019-05-12T11:14:14.605Z,53.75
2019-05-12T11:15:14.608Z,54.05
2019-05-12T11:16:16.752Z,50.91
2019-05-12T11:17:14.575Z,51.32
2019-05-12T11:18:14.551Z,51.72
2019-05-12T11:19:14.541Z,49.19
2019-05-12T11:20:14.659Z,52.31
2019-05-12T11:21:14.516Z,50.99
2019-05-12T11:22:14.518Z,50.56
2019-05-12T11:23:14.496Z,53.93
2019-05-12T11:24:14.489Z,52.18
2019-05-12T11:25:14.581Z,53.09
2019-05-12T11:26:14.461Z,52.56
2019-05-12T11:27:14.499Z,50.23
2019-05-12T11:28:14.470Z,52.76
2019-05-12T11:29:14.438Z,49.30
2019-05-12T11:30:14.425Z,48.28
2019-05-12T11:31:14.408Z,52.03
2019-05-12T11:32:17.517Z,49.90
2019-05-12T11:33:14.399Z,50.01
2019-05-12T11:34:14.444Z,52.61
2019-05-12T11:35:14.441Z,48.16
2019-05-12T11:36:14.346Z,50.89
2019-05-12T11:37:14.340Z,49.58
2019-05-12T11:38:14.347Z,50.49
2019-05-12T11:39:14.356Z,48.08
2019-05-12T11:40:14.301Z,46.77
2019-05-12T11:41:16.179Z,49.30
2019-05-12T11:42:15.303Z,53.42
2019-05-12T11:43:14.617Z,50.69
2019-05-12T11:44:14.266Z,48.06
2019-05-12T11:45:14.279Z,49.78
2019-05-12T11:46:14.251Z,48.16
2019-05-12T11:47:23.938Z,48.26
2019-05-12T11:48:15.252Z,48.57
2019-05-12T11:49:14.213Z,47.45
2019-05-12T11:50:14.198Z,49.38
2019-05-12T11:51:14.478Z,47.45
2019-05-12T11:52:18.493Z,48.06
2019-05-12T11:53:15.186Z,48.16
2019-05-12T11:54:14.162Z,47.03
2019-05-12T11:55:14.177Z,48.65
2019-05-12T11:56:14.139Z,48.34
2019-05-12T11:57:14.125Z,47.83
2019-05-12T11:58:14.123Z,49.93
2019-05-12T11:59:14.096Z,51.86
2019-05-12T12:00:14.086Z,48.93
2019-05-12T12:01:14.081Z,49.61
2019-05-12T12:02:14.058Z,47.89
2019-05-12T12:03:17.920Z,48.39
2019-05-12T12:04:14.446Z,47.99
2019-05-12T12:05:14.025Z,47.71
2019-05-12T12:06:14.017Z,44.68
2019-05-12T12:07:14.007Z,44.27
2019-05-12T12:08:14.589Z,44.70
2019-05-12T12:09:17.443Z,48.34
2019-05-12T12:10:14.278Z,45.71
2019-05-12T12:11:18.902Z,43.61
2019-05-12T12:12:14.950Z,45.43
2019-05-12T12:13:14.291Z,47.25
2019-05-12T12:14:14.442Z,44.32
2019-05-12T12:15:13.927Z,42.80
2019-05-12T12:16:14.182Z,44.01
2019-05-12T12:17:13.906Z,45.31
2019-05-12T12:18:15.409Z,46.04
2019-05-12T12:19:13.895Z,47.94
2019-05-12T12:20:22.126Z,48.54
2019-05-12T12:21:14.859Z,49.96
2019-05-12T12:22:14.636Z,47.20
2019-05-12T12:23:14.181Z,45.69
2019-05-12T12:24:13.838Z,42.96
2019-05-12T12:25:15.588Z,42.55
2019-05-12T12:26:13.804Z,44.98
2019-05-12T12:27:14.237Z,45.39
2019-05-12T12:28:13.846Z,47.11
2019-05-12T12:29:13.938Z,44.88
2019-05-12T12:30:19.415Z,45.79
2019-05-12T12:31:14.747Z,45.79
2019-05-12T12:32:16.861Z,44.56
2019-05-12T12:33:14.730Z,43.34
2019-05-12T12:34:15.588Z,45.99
2019-05-12T12:35:15.125Z,43.34
2019-05-12T12:36:14.537Z,42.64
2019-05-12T12:37:13.855Z,44.35
2019-05-12T12:38:14.233Z,47.99
2019-05-12T12:39:13.708Z,42.74
2019-05-12T12:40:14.426Z,44.96
2019-05-12T12:41:13.628Z,45.14
2019-05-12T12:42:14.074Z,43.63
2019-05-12T12:43:13.930Z,43.34
2019-05-12T12:44:13.716Z,42.54
2019-05-12T12:45:14.166Z,42.43
2019-05-12T12:46:18.065Z,42.13
2019-05-12T12:47:14.561Z,44.35
2019-05-12T12:48:13.836Z,43.06
2019-05-12T12:49:14.069Z,43.16
2019-05-12T12:50:13.574Z,45.79
2019-05-12T12:51:17.340Z,46.91
2019-05-12T12:52:13.858Z,46.80